Terminal Aerodrome Forecast
Issued by NWS

Home | Current Version | Previous Version | Graphics & Text | Print | Product List | Glossary On
Versions: 1 2 3 4 5 6 7 8 9 10 11 12 13 14
000
FTUS43 KICT 272322
TAFSLN
TAF
KSLN 272322Z 2800/2824 15007KT P6SM FEW040 SCT100
     FM280300 14005KT P6SM VCTS SCT030CB BKN050
     FM281000 VRB05KT P6SM SCT090
     FM281600 29008KT P6SM SCT040=

USA.gov is the U.S. government's official web portal to all federal, state and local government web resources and services.